sensor_id;sensor_type;location;lat;lon;timestamp;P1;durP1;ratioP1;P2;durP2;ratioP2
12848;SDS011;6493;50.928;7.172;2024-02-15T00:00:34;0.43;;;0.43;;
12848;SDS011;6493;50.928;7.172;2024-02-15T00:05:37;0.30;;;0.30;;
12848;SDS011;6493;50.928;7.172;2024-02-15T00:10:42;0.40;;;0.30;;
12848;SDS011;6493;50.928;7.172;2024-02-15T00:15:48;0.30;;;0.30;;
12848;SDS011;6493;50.928;7.172;2024-02-15T00:20:52;0.73;;;0.40;;
12848;SDS011;6493;50.928;7.172;2024-02-15T00:25:58;0.27;;;0.27;;
12848;SDS011;6493;50.928;7.172;2024-02-15T00:31:02;0.50;;;0.40;;
12848;SDS011;6493;50.928;7.172;2024-02-15T00:36:06;0.30;;;0.30;;
12848;SDS011;6493;50.928;7.172;2024-02-15T00:41:11;0.50;;;0.50;;
12848;SDS011;6493;50.928;7.172;2024-02-15T00:46:15;0.50;;;0.30;;
12848;SDS011;6493;50.928;7.172;2024-02-15T00:51:19;0.63;;;0.40;;
12848;SDS011;6493;50.928;7.172;2024-02-15T00:56:24;0.50;;;0.50;;
12848;SDS011;6493;50.928;7.172;2024-02-15T01:01:28;0.57;;;0.40;;
12848;SDS011;6493;50.928;7.172;2024-02-15T01:06:31;0.40;;;0.40;;
12848;SDS011;6493;50.928;7.172;2024-02-15T01:11:37;0.50;;;0.50;;
12848;SDS011;6493;50.928;7.172;2024-02-15T01:16:40;0.30;;;0.30;;
12848;SDS011;6493;50.928;7.172;2024-02-15T01:21:45;0.80;;;0.50;;
12848;SDS011;6493;50.928;7.172;2024-02-15T01:26:50;0.40;;;0.40;;
12848;SDS011;6493;50.928;7.172;2024-02-15T01:31:53;1.33;;;0.50;;
12848;SDS011;6493;50.928;7.172;2024-02-15T01:36:57;0.87;;;0.60;;
12848;SDS011;6493;50.928;7.172;2024-02-15T01:42:02;0.83;;;0.50;;
12848;SDS011;6493;50.928;7.172;2024-02-15T01:47:07;0.63;;;0.40;;
12848;SDS011;6493;50.928;7.172;2024-02-15T01:52:10;0.40;;;0.40;;
12848;SDS011;6493;50.928;7.172;2024-02-15T01:57:16;0.60;;;0.50;;
12848;SDS011;6493;50.928;7.172;2024-02-15T02:02:21;1.27;;;0.50;;
12848;SDS011;6493;50.928;7.172;2024-02-15T02:07:28;0.50;;;0.50;;
12848;SDS011;6493;50.928;7.172;2024-02-15T02:12:33;0.50;;;0.50;;
12848;SDS011;6493;50.928;7.172;2024-02-15T02:17:37;0.50;;;0.50;;
12848;SDS011;6493;50.928;7.172;2024-02-15T02:22:42;0.47;;;0.40;;
12848;SDS011;6493;50.928;7.172;2024-02-15T02:27:51;0.50;;;0.50;;
12848;SDS011;6493;50.928;7.172;2024-02-15T02:32:54;0.40;;;0.40;;
12848;SDS011;6493;50.928;7.172;2024-02-15T02:37:58;0.40;;;0.40;;
12848;SDS011;6493;50.928;7.172;2024-02-15T02:43:03;0.47;;;0.40;;
12848;SDS011;6493;50.928;7.172;2024-02-15T02:48:07;0.57;;;0.53;;
12848;SDS011;6493;50.928;7.172;2024-02-15T02:53:11;0.43;;;0.43;;
12848;SDS011;6493;50.928;7.172;2024-02-15T02:58:16;0.70;;;0.50;;
12848;SDS011;6493;50.928;7.172;2024-02-15T03:03:21;2.80;;;0.57;;
12848;SDS011;6493;50.928;7.172;2024-02-15T03:08:25;0.60;;;0.60;;
12848;SDS011;6493;50.928;7.172;2024-02-15T03:13:31;0.57;;;0.57;;
12848;SDS011;6493;50.928;7.172;2024-02-15T03:18:34;1.03;;;0.50;;
12848;SDS011;6493;50.928;7.172;2024-02-15T03:23:38;0.90;;;0.40;;
12848;SDS011;6493;50.928;7.172;2024-02-15T03:28:43;0.60;;;0.60;;
12848;SDS011;6493;50.928;7.172;2024-02-15T03:33:47;0.70;;;0.53;;
12848;SDS011;6493;50.928;7.172;2024-02-15T03:38:51;1.00;;;0.70;;
12848;SDS011;6493;50.928;7.172;2024-02-15T03:43:57;0.63;;;0.40;;
12848;SDS011;6493;50.928;7.172;2024-02-15T03:49:02;1.10;;;0.50;;
12848;SDS011;6493;50.928;7.172;2024-02-15T03:54:05;0.60;;;0.60;;
12848;SDS011;6493;50.928;7.172;2024-02-15T03:59:10;1.47;;;0.50;;
12848;SDS011;6493;50.928;7.172;2024-02-15T04:04:15;0.30;;;0.30;;
12848;SDS011;6493;50.928;7.172;2024-02-15T04:09:18;0.73;;;0.50;;
12848;SDS011;6493;50.928;7.172;2024-02-15T04:14:24;0.83;;;0.70;;
12848;SDS011;6493;50.928;7.172;2024-02-15T04:19:27;0.70;;;0.70;;
12848;SDS011;6493;50.928;7.172;2024-02-15T04:24:32;1.00;;;0.90;;
12848;SDS011;6493;50.928;7.172;2024-02-15T04:29:37;0.90;;;0.70;;
12848;SDS011;6493;50.928;7.172;2024-02-15T04:34:42;0.60;;;0.53;;
12848;SDS011;6493;50.928;7.172;2024-02-15T04:39:48;0.67;;;0.50;;
12848;SDS011;6493;50.928;7.172;2024-02-15T04:44:53;0.50;;;0.50;;
12848;SDS011;6493;50.928;7.172;2024-02-15T04:49:58;0.70;;;0.70;;
12848;SDS011;6493;50.928;7.172;2024-02-15T04:55:04;1.47;;;0.70;;
12848;SDS011;6493;50.928;7.172;2024-02-15T05:00:11;0.63;;;0.63;;
12848;SDS011;6493;50.928;7.172;2024-02-15T05:05:17;0.80;;;0.73;;
12848;SDS011;6493;50.928;7.172;2024-02-15T05:10:21;1.20;;;0.80;;
12848;SDS011;6493;50.928;7.172;2024-02-15T05:15:26;0.80;;;0.67;;
12848;SDS011;6493;50.928;7.172;2024-02-15T05:20:30;1.13;;;0.50;;
12848;SDS011;6493;50.928;7.172;2024-02-15T05:25:35;0.73;;;0.60;;
12848;SDS011;6493;50.928;7.172;2024-02-15T05:30:40;0.90;;;0.60;;
12848;SDS011;6493;50.928;7.172;2024-02-15T05:35:44;0.67;;;0.60;;
12848;SDS011;6493;50.928;7.172;2024-02-15T05:40:51;0.90;;;0.60;;
12848;SDS011;6493;50.928;7.172;2024-02-15T05:45:57;1.23;;;0.60;;
12848;SDS011;6493;50.928;7.172;2024-02-15T05:51:01;1.13;;;0.60;;
12848;SDS011;6493;50.928;7.172;2024-02-15T05:56:06;1.33;;;0.70;;
12848;SDS011;6493;50.928;7.172;2024-02-15T06:01:11;2.83;;;0.90;;
12848;SDS011;6493;50.928;7.172;2024-02-15T06:06:16;0.97;;;0.57;;
12848;SDS011;6493;50.928;7.172;2024-02-15T06:11:19;0.50;;;0.50;;
12848;SDS011;6493;50.928;7.172;2024-02-15T06:16:24;1.10;;;0.67;;
12848;SDS011;6493;50.928;7.172;2024-02-15T06:21:28;1.43;;;0.63;;
12848;SDS011;6493;50.928;7.172;2024-02-15T06:26:31;0.90;;;0.67;;
12848;SDS011;6493;50.928;7.172;2024-02-15T06:31:38;2.07;;;0.80;;
12848;SDS011;6493;50.928;7.172;2024-02-15T06:36:59;0.43;;;0.43;;
12848;SDS011;6493;50.928;7.172;2024-02-15T06:42:20;1.80;;;0.67;;
12848;SDS011;6493;50.928;7.172;2024-02-15T06:47:25;0.67;;;0.50;;
12848;SDS011;6493;50.928;7.172;2024-02-15T06:52:29;0.90;;;0.67;;
12848;SDS011;6493;50.928;7.172;2024-02-15T06:57:32;0.73;;;0.50;;
12848;SDS011;6493;50.928;7.172;2024-02-15T07:02:38;0.60;;;0.50;;
12848;SDS011;6493;50.928;7.172;2024-02-15T07:07:42;0.50;;;0.50;;
12848;SDS011;6493;50.928;7.172;2024-02-15T07:12:46;1.43;;;1.03;;
12848;SDS011;6493;50.928;7.172;2024-02-15T07:17:52;1.60;;;1.00;;
12848;SDS011;6493;50.928;7.172;2024-02-15T07:23:16;1.50;;;1.00;;
12848;SDS011;6493;50.928;7.172;2024-02-15T07:28:40;1.83;;;1.30;;
12848;SDS011;6493;50.928;7.172;2024-02-15T07:34:05;2.10;;;1.20;;
12848;SDS011;6493;50.928;7.172;2024-02-15T07:39:29;2.20;;;1.30;;
12848;SDS011;6493;50.928;7.172;2024-02-15T07:44:53;2.23;;;1.10;;
12848;SDS011;6493;50.928;7.172;2024-02-15T07:50:18;1.20;;;0.97;;
12848;SDS011;6493;50.928;7.172;2024-02-15T07:55:42;2.07;;;1.40;;
12848;SDS011;6493;50.928;7.172;2024-02-15T08:01:05;1.63;;;0.90;;
12848;SDS011;6493;50.928;7.172;2024-02-15T08:06:28;3.33;;;1.20;;
12848;SDS011;6493;50.928;7.172;2024-02-15T08:11:52;1.83;;;1.10;;
12848;SDS011;6493;50.928;7.172;2024-02-15T08:17:16;1.97;;;1.00;;
12848;SDS011;6493;50.928;7.172;2024-02-15T08:22:39;2.03;;;1.30;;
12848;SDS011;6493;50.928;7.172;2024-02-15T08:28:03;3.43;;;1.30;;
12848;SDS011;6493;50.928;7.172;2024-02-15T08:33:27;2.77;;;1.20;;
12848;SDS011;6493;50.928;7.172;2024-02-15T08:38:33;1.67;;;1.00;;
12848;SDS011;6493;50.928;7.172;2024-02-15T08:43:38;2.50;;;1.37;;
12848;SDS011;6493;50.928;7.172;2024-02-15T08:48:43;1.87;;;1.20;;
12848;SDS011;6493;50.928;7.172;2024-02-15T08:53:50;2.70;;;1.13;;
12848;SDS011;6493;50.928;7.172;2024-02-15T08:58:54;3.00;;;1.30;;
12848;SDS011;6493;50.928;7.172;2024-02-15T09:04:22;1.80;;;1.33;;
12848;SDS011;6493;50.928;7.172;2024-02-15T09:09:49;3.37;;;1.40;;
12848;SDS011;6493;50.928;7.172;2024-02-15T09:15:13;3.43;;;1.27;;
12848;SDS011;6493;50.928;7.172;2024-02-15T09:20:37;3.77;;;1.30;;
12848;SDS011;6493;50.928;7.172;2024-02-15T09:26:07;1.80;;;1.27;;
12848;SDS011;6493;50.928;7.172;2024-02-15T09:31:31;2.93;;;1.27;;
12848;SDS011;6493;50.928;7.172;2024-02-15T09:36:57;3.53;;;1.20;;
12848;SDS011;6493;50.928;7.172;2024-02-15T09:42:02;1.90;;;1.27;;
12848;SDS011;6493;50.928;7.172;2024-02-15T09:47:06;2.70;;;1.10;;
12848;SDS011;6493;50.928;7.172;2024-02-15T09:52:10;2.03;;;1.00;;
12848;SDS011;6493;50.928;7.172;2024-02-15T09:57:19;1.80;;;1.10;;
12848;SDS011;6493;50.928;7.172;2024-02-15T10:02:23;2.87;;;1.17;;
12848;SDS011;6493;50.928;7.172;2024-02-15T10:07:28;1.30;;;0.60;;
12848;SDS011;6493;50.928;7.172;2024-02-15T10:12:37;1.57;;;0.90;;
12848;SDS011;6493;50.928;7.172;2024-02-15T10:17:41;2.20;;;0.80;;
12848;SDS011;6493;50.928;7.172;2024-02-15T10:28:22;0.97;;;0.80;;
12848;SDS011;6493;50.928;7.172;2024-02-15T10:33:27;2.70;;;0.90;;
12848;SDS011;6493;50.928;7.172;2024-02-15T10:38:32;1.40;;;0.80;;
12848;SDS011;6493;50.928;7.172;2024-02-15T10:43:39;3.53;;;1.27;;
12848;SDS011;6493;50.928;7.172;2024-02-15T10:48:48;1.40;;;0.90;;
12848;SDS011;6493;50.928;7.172;2024-02-15T10:53:57;3.50;;;0.80;;
12848;SDS011;6493;50.928;7.172;2024-02-15T10:59:10;1.47;;;0.70;;
12848;SDS011;6493;50.928;7.172;2024-02-15T11:04:19;0.97;;;0.60;;
12848;SDS011;6493;50.928;7.172;2024-02-15T11:09:24;2.47;;;0.83;;
12848;SDS011;6493;50.928;7.172;2024-02-15T11:14:30;1.93;;;0.93;;
12848;SDS011;6493;50.928;7.172;2024-02-15T11:19:43;3.17;;;0.90;;
12848;SDS011;6493;50.928;7.172;2024-02-15T11:24:51;2.20;;;0.97;;
12848;SDS011;6493;50.928;7.172;2024-02-15T11:29:56;1.60;;;1.20;;
12848;SDS011;6493;50.928;7.172;2024-02-15T11:35:06;1.07;;;0.90;;
12848;SDS011;6493;50.928;7.172;2024-02-15T11:40:20;3.07;;;1.30;;
12848;SDS011;6493;50.928;7.172;2024-02-15T11:45:30;3.73;;;1.33;;
12848;SDS011;6493;50.928;7.172;2024-02-15T11:50:39;1.23;;;1.00;;
12848;SDS011;6493;50.928;7.172;2024-02-15T11:55:44;1.30;;;0.90;;
12848;SDS011;6493;50.928;7.172;2024-02-15T12:00:50;3.30;;;1.40;;
12848;SDS011;6493;50.928;7.172;2024-02-15T12:06:11;1.30;;;1.00;;
12848;SDS011;6493;50.928;7.172;2024-02-15T12:11:37;1.77;;;1.00;;
12848;SDS011;6493;50.928;7.172;2024-02-15T12:17:04;1.40;;;0.87;;
12848;SDS011;6493;50.928;7.172;2024-02-15T12:22:26;1.47;;;0.83;;
12848;SDS011;6493;50.928;7.172;2024-02-15T12:27:34;2.47;;;1.10;;
12848;SDS011;6493;50.928;7.172;2024-02-15T12:32:39;2.23;;;1.27;;
12848;SDS011;6493;50.928;7.172;2024-02-15T12:37:43;2.37;;;1.30;;
12848;SDS011;6493;50.928;7.172;2024-02-15T12:42:47;2.37;;;1.00;;
12848;SDS011;6493;50.928;7.172;2024-02-15T12:47:53;1.40;;;1.07;;
12848;SDS011;6493;50.928;7.172;2024-02-15T12:52:57;1.60;;;0.90;;
12848;SDS011;6493;50.928;7.172;2024-02-15T12:58:04;1.70;;;0.90;;
12848;SDS011;6493;50.928;7.172;2024-02-15T13:03:12;1.60;;;1.03;;
12848;SDS011;6493;50.928;7.172;2024-02-15T13:08:18;1.07;;;0.80;;
12848;SDS011;6493;50.928;7.172;2024-02-15T13:13:22;2.13;;;0.90;;
12848;SDS011;6493;50.928;7.172;2024-02-15T13:18:27;1.40;;;0.97;;
12848;SDS011;6493;50.928;7.172;2024-02-15T13:23:32;2.37;;;1.10;;
12848;SDS011;6493;50.928;7.172;2024-02-15T13:28:37;0.97;;;0.87;;
12848;SDS011;6493;50.928;7.172;2024-02-15T13:33:43;1.20;;;0.80;;
12848;SDS011;6493;50.928;7.172;2024-02-15T13:38:49;1.00;;;0.73;;
12848;SDS011;6493;50.928;7.172;2024-02-15T13:43:54;2.97;;;0.90;;
12848;SDS011;6493;50.928;7.172;2024-02-15T13:48:58;1.60;;;0.83;;
12848;SDS011;6493;50.928;7.172;2024-02-15T13:54:04;2.43;;;1.37;;
12848;SDS011;6493;50.928;7.172;2024-02-15T13:59:07;1.37;;;0.90;;
12848;SDS011;6493;50.928;7.172;2024-02-15T14:04:12;1.73;;;1.17;;
12848;SDS011;6493;50.928;7.172;2024-02-15T14:09:16;1.43;;;1.20;;
12848;SDS011;6493;50.928;7.172;2024-02-15T14:14:20;2.10;;;1.00;;
12848;SDS011;6493;50.928;7.172;2024-02-15T14:19:25;1.87;;;1.47;;
12848;SDS011;6493;50.928;7.172;2024-02-15T14:24:29;1.50;;;1.00;;
12848;SDS011;6493;50.928;7.172;2024-02-15T14:29:32;2.30;;;1.07;;
12848;SDS011;6493;50.928;7.172;2024-02-15T14:34:40;1.83;;;1.20;;
12848;SDS011;6493;50.928;7.172;2024-02-15T14:39:44;1.53;;;1.10;;
12848;SDS011;6493;50.928;7.172;2024-02-15T14:44:48;1.30;;;0.77;;
12848;SDS011;6493;50.928;7.172;2024-02-15T14:49:53;1.10;;;0.80;;
12848;SDS011;6493;50.928;7.172;2024-02-15T14:54:57;1.70;;;1.00;;
12848;SDS011;6493;50.928;7.172;2024-02-15T15:00:04;2.00;;;1.30;;
12848;SDS011;6493;50.928;7.172;2024-02-15T15:05:15;1.53;;;0.97;;
12848;SDS011;6493;50.928;7.172;2024-02-15T15:10:36;1.67;;;1.03;;
12848;SDS011;6493;50.928;7.172;2024-02-15T15:15:58;1.67;;;1.00;;
12848;SDS011;6493;50.928;7.172;2024-02-15T15:21:03;1.33;;;0.63;;
12848;SDS011;6493;50.928;7.172;2024-02-15T15:26:07;0.97;;;0.87;;
12848;SDS011;6493;50.928;7.172;2024-02-15T15:31:12;2.90;;;1.20;;
12848;SDS011;6493;50.928;7.172;2024-02-15T15:36:18;2.53;;;1.20;;
12848;SDS011;6493;50.928;7.172;2024-02-15T15:41:24;2.03;;;1.00;;
12848;SDS011;6493;50.928;7.172;2024-02-15T15:46:29;1.77;;;1.10;;
12848;SDS011;6493;50.928;7.172;2024-02-15T15:51:40;1.27;;;0.90;;
12848;SDS011;6493;50.928;7.172;2024-02-15T15:56:44;2.93;;;0.90;;
12848;SDS011;6493;50.928;7.172;2024-02-15T16:01:48;2.63;;;1.00;;
12848;SDS011;6493;50.928;7.172;2024-02-15T16:06:54;1.00;;;0.80;;
12848;SDS011;6493;50.928;7.172;2024-02-15T16:11:58;2.30;;;1.00;;
12848;SDS011;6493;50.928;7.172;2024-02-15T16:17:02;2.87;;;1.03;;
12848;SDS011;6493;50.928;7.172;2024-02-15T16:22:07;2.33;;;1.10;;
12848;SDS011;6493;50.928;7.172;2024-02-15T16:27:11;1.80;;;1.20;;
12848;SDS011;6493;50.928;7.172;2024-02-15T16:32:14;4.67;;;1.27;;
12848;SDS011;6493;50.928;7.172;2024-02-15T16:37:19;1.60;;;1.10;;
12848;SDS011;6493;50.928;7.172;2024-02-15T16:42:23;0.80;;;0.80;;
12848;SDS011;6493;50.928;7.172;2024-02-15T16:47:26;2.53;;;0.93;;
12848;SDS011;6493;50.928;7.172;2024-02-15T16:52:31;1.90;;;0.80;;
12848;SDS011;6493;50.928;7.172;2024-02-15T16:57:35;1.43;;;0.93;;
12848;SDS011;6493;50.928;7.172;2024-02-15T17:02:41;4.20;;;1.00;;
12848;SDS011;6493;50.928;7.172;2024-02-15T17:07:46;2.83;;;1.07;;
12848;SDS011;6493;50.928;7.172;2024-02-15T17:12:50;1.63;;;0.80;;
12848;SDS011;6493;50.928;7.172;2024-02-15T17:17:55;1.90;;;0.80;;
12848;SDS011;6493;50.928;7.172;2024-02-15T17:23:00;2.43;;;1.10;;
12848;SDS011;6493;50.928;7.172;2024-02-15T17:28:04;1.80;;;0.97;;
12848;SDS011;6493;50.928;7.172;2024-02-15T17:33:08;2.00;;;1.00;;
12848;SDS011;6493;50.928;7.172;2024-02-15T17:38:14;1.90;;;1.00;;
12848;SDS011;6493;50.928;7.172;2024-02-15T17:43:18;1.57;;;1.00;;
12848;SDS011;6493;50.928;7.172;2024-02-15T17:48:21;1.93;;;1.10;;
12848;SDS011;6493;50.928;7.172;2024-02-15T17:53:30;4.60;;;1.10;;
12848;SDS011;6493;50.928;7.172;2024-02-15T17:58:33;2.17;;;1.20;;
12848;SDS011;6493;50.928;7.172;2024-02-15T18:03:37;2.63;;;1.20;;
12848;SDS011;6493;50.928;7.172;2024-02-15T18:08:43;3.03;;;1.40;;
12848;SDS011;6493;50.928;7.172;2024-02-15T18:13:46;2.87;;;1.07;;
12848;SDS011;6493;50.928;7.172;2024-02-15T18:18:50;2.00;;;1.20;;
12848;SDS011;6493;50.928;7.172;2024-02-15T18:23:56;2.10;;;1.00;;
12848;SDS011;6493;50.928;7.172;2024-02-15T18:29:02;4.97;;;1.63;;
12848;SDS011;6493;50.928;7.172;2024-02-15T18:34:05;2.23;;;1.37;;
12848;SDS011;6493;50.928;7.172;2024-02-15T18:39:12;1.67;;;0.97;;
12848;SDS011;6493;50.928;7.172;2024-02-15T18:44:16;1.83;;;1.10;;
12848;SDS011;6493;50.928;7.172;2024-02-15T18:49:23;3.27;;;1.20;;
12848;SDS011;6493;50.928;7.172;2024-02-15T18:54:38;2.47;;;1.20;;
12848;SDS011;6493;50.928;7.172;2024-02-15T18:59:44;3.77;;;1.60;;
12848;SDS011;6493;50.928;7.172;2024-02-15T19:04:47;2.87;;;1.17;;
12848;SDS011;6493;50.928;7.172;2024-02-15T19:09:53;1.60;;;1.07;;
12848;SDS011;6493;50.928;7.172;2024-02-15T19:14:56;1.97;;;1.17;;
12848;SDS011;6493;50.928;7.172;2024-02-15T19:20:02;1.77;;;1.10;;
12848;SDS011;6493;50.928;7.172;2024-02-15T19:25:08;4.67;;;1.23;;
12848;SDS011;6493;50.928;7.172;2024-02-15T19:30:17;2.63;;;1.13;;
12848;SDS011;6493;50.928;7.172;2024-02-15T19:35:21;2.07;;;1.10;;
12848;SDS011;6493;50.928;7.172;2024-02-15T19:40:26;3.07;;;1.30;;
12848;SDS011;6493;50.928;7.172;2024-02-15T19:45:30;2.73;;;1.30;;
12848;SDS011;6493;50.928;7.172;2024-02-15T19:50:39;2.60;;;0.97;;
12848;SDS011;6493;50.928;7.172;2024-02-15T19:55:44;1.80;;;1.30;;
12848;SDS011;6493;50.928;7.172;2024-02-15T20:00:48;2.60;;;1.30;;
12848;SDS011;6493;50.928;7.172;2024-02-15T20:05:53;3.67;;;1.10;;
12848;SDS011;6493;50.928;7.172;2024-02-15T20:11:01;1.97;;;1.40;;
12848;SDS011;6493;50.928;7.172;2024-02-15T20:16:06;1.37;;;1.00;;
12848;SDS011;6493;50.928;7.172;2024-02-15T20:21:09;1.80;;;1.07;;
12848;SDS011;6493;50.928;7.172;2024-02-15T20:26:15;2.50;;;1.27;;
12848;SDS011;6493;50.928;7.172;2024-02-15T20:31:19;2.57;;;1.40;;
12848;SDS011;6493;50.928;7.172;2024-02-15T20:36:22;4.87;;;1.43;;
12848;SDS011;6493;50.928;7.172;2024-02-15T20:41:27;3.67;;;1.20;;
12848;SDS011;6493;50.928;7.172;2024-02-15T20:46:31;3.77;;;1.37;;
12848;SDS011;6493;50.928;7.172;2024-02-15T20:51:35;3.00;;;1.20;;
12848;SDS011;6493;50.928;7.172;2024-02-15T20:56:40;1.77;;;1.10;;
12848;SDS011;6493;50.928;7.172;2024-02-15T21:01:47;2.83;;;1.30;;
12848;SDS011;6493;50.928;7.172;2024-02-15T21:06:52;3.73;;;1.40;;
12848;SDS011;6493;50.928;7.172;2024-02-15T21:11:57;2.93;;;1.50;;
12848;SDS011;6493;50.928;7.172;2024-02-15T21:17:00;2.80;;;1.20;;
12848;SDS011;6493;50.928;7.172;2024-02-15T21:22:04;2.87;;;1.47;;
12848;SDS011;6493;50.928;7.172;2024-02-15T21:27:09;2.77;;;1.50;;
12848;SDS011;6493;50.928;7.172;2024-02-15T21:32:13;2.43;;;1.33;;
12848;SDS011;6493;50.928;7.172;2024-02-15T21:37:18;1.77;;;1.33;;
12848;SDS011;6493;50.928;7.172;2024-02-15T21:42:27;1.50;;;1.37;;
12848;SDS011;6493;50.928;7.172;2024-02-15T21:47:32;1.50;;;1.17;;
12848;SDS011;6493;50.928;7.172;2024-02-15T21:52:36;2.37;;;1.30;;
12848;SDS011;6493;50.928;7.172;2024-02-15T21:57:41;3.63;;;1.20;;
12848;SDS011;6493;50.928;7.172;2024-02-15T22:02:45;1.30;;;0.77;;
12848;SDS011;6493;50.928;7.172;2024-02-15T22:07:50;1.67;;;0.97;;
12848;SDS011;6493;50.928;7.172;2024-02-15T22:12:55;1.63;;;1.07;;
12848;SDS011;6493;50.928;7.172;2024-02-15T22:17:58;1.77;;;1.00;;
12848;SDS011;6493;50.928;7.172;2024-02-15T22:23:03;2.60;;;1.10;;
12848;SDS011;6493;50.928;7.172;2024-02-15T22:28:32;1.83;;;1.30;;
12848;SDS011;6493;50.928;7.172;2024-02-15T22:33:36;2.93;;;1.10;;
12848;SDS011;6493;50.928;7.172;2024-02-15T22:38:42;1.87;;;1.10;;
12848;SDS011;6493;50.928;7.172;2024-02-15T22:43:47;2.67;;;1.17;;
12848;SDS011;6493;50.928;7.172;2024-02-15T22:48:51;1.63;;;0.83;;
12848;SDS011;6493;50.928;7.172;2024-02-15T22:53:55;2.53;;;0.93;;
12848;SDS011;6493;50.928;7.172;2024-02-15T22:59:00;1.67;;;1.00;;
12848;SDS011;6493;50.928;7.172;2024-02-15T23:04:03;2.10;;;1.00;;
12848;SDS011;6493;50.928;7.172;2024-02-15T23:09:08;1.10;;;0.80;;
12848;SDS011;6493;50.928;7.172;2024-02-15T23:14:13;1.97;;;1.07;;
12848;SDS011;6493;50.928;7.172;2024-02-15T23:19:17;1.53;;;0.70;;
12848;SDS011;6493;50.928;7.172;2024-02-15T23:24:21;0.67;;;0.67;;
12848;SDS011;6493;50.928;7.172;2024-02-15T23:29:26;1.33;;;0.83;;
12848;SDS011;6493;50.928;7.172;2024-02-15T23:34:30;2.43;;;1.00;;
12848;SDS011;6493;50.928;7.172;2024-02-15T23:39:33;1.97;;;1.10;;
12848;SDS011;6493;50.928;7.172;2024-02-15T23:45:04;0.90;;;0.70;;
12848;SDS011;6493;50.928;7.172;2024-02-15T23:50:09;2.23;;;0.83;;
12848;SDS011;6493;50.928;7.172;2024-02-15T23:55:17;2.07;;;1.00;;
